createdAt,value
2017-09-06T00:02:22.844Z,91.78
2017-09-06T00:04:51.387Z,91.74
2017-09-06T00:07:19.855Z,91.45
2017-09-06T00:09:48.319Z,91.24
2017-09-06T00:12:16.754Z,91.12
2017-09-06T00:14:45.322Z,90.89
2017-09-06T00:17:13.748Z,91.13
2017-09-06T00:19:42.994Z,91.42
2017-09-06T00:22:13.041Z,91.54
2017-09-06T00:24:41.584Z,91.47
2017-09-06T00:27:10.068Z,91.45
2017-09-06T00:29:38.560Z,91.43
2017-09-06T00:32:06.993Z,91.16
2017-09-06T00:34:35.526Z,91.26
2017-09-06T00:37:03.956Z,91.26
2017-09-06T00:39:32.418Z,91.37
2017-09-06T00:42:00.969Z,91.10
2017-09-06T00:44:29.423Z,91.50
2017-09-06T00:46:57.924Z,91.43
2017-09-06T00:49:26.381Z,91.05
2017-09-06T00:51:54.897Z,91.12
2017-09-06T00:54:23.380Z,91.44
2017-09-06T00:56:51.854Z,91.51
2017-09-06T00:59:20.348Z,91.28
2017-09-06T01:01:48.772Z,91.20
2017-09-06T01:04:17.233Z,91.12
2017-09-06T01:06:45.688Z,91.11
2017-09-06T01:09:14.151Z,91.04
2017-09-06T01:11:42.581Z,91.07
2017-09-06T01:14:11.016Z,91.43
2017-09-06T01:16:39.499Z,91.38
2017-09-06T01:19:07.994Z,91.20
2017-09-06T01:21:36.478Z,91.17
2017-09-06T01:24:04.963Z,90.95
2017-09-06T01:26:33.424Z,90.54
2017-09-06T01:29:01.922Z,91.09
2017-09-06T01:31:30.388Z,91.00
2017-09-06T01:33:58.807Z,90.73
2017-09-06T01:36:27.364Z,90.79
2017-09-06T01:38:55.835Z,90.52
2017-09-06T01:41:24.333Z,90.31
2017-09-06T01:43:52.809Z,90.57
2017-09-06T01:46:21.293Z,90.49
2017-09-06T01:48:49.759Z,90.32
2017-09-06T01:51:18.243Z,90.30
2017-09-06T01:53:46.676Z,90.10
2017-09-06T01:56:15.115Z,90.27
2017-09-06T01:58:43.609Z,90.43
2017-09-06T02:01:12.081Z,91.11
2017-09-06T02:03:40.551Z,91.07
2017-09-06T02:06:09.045Z,90.81
2017-09-06T02:08:37.486Z,90.78
2017-09-06T02:11:06.013Z,90.30
2017-09-06T02:13:34.446Z,90.31
2017-09-06T02:16:02.900Z,90.48
2017-09-06T02:18:31.353Z,90.25
2017-09-06T02:20:59.844Z,90.09
2017-09-06T02:23:28.277Z,90.29
2017-09-06T02:25:56.787Z,90.60
2017-09-06T02:28:25.210Z,90.70
2017-09-06T02:30:53.743Z,90.72
2017-09-06T02:33:22.231Z,90.50
2017-09-06T02:35:50.683Z,90.45
2017-09-06T02:38:19.121Z,90.36
2017-09-06T02:40:47.683Z,90.71
2017-09-06T02:43:16.143Z,90.86
2017-09-06T02:45:44.656Z,90.74
2017-09-06T02:48:13.079Z,90.70
2017-09-06T02:50:41.533Z,90.72
2017-09-06T02:53:10.010Z,90.58
2017-09-06T02:55:38.471Z,90.66
2017-09-06T02:58:06.951Z,90.58
2017-09-06T03:00:35.404Z,90.56
2017-09-06T03:03:03.931Z,90.75
2017-09-06T03:05:32.388Z,90.26
2017-09-06T03:08:00.820Z,90.21
2017-09-06T03:10:29.368Z,90.07
2017-09-06T03:12:57.822Z,89.67
2017-09-06T03:15:26.333Z,89.47
2017-09-06T03:17:54.828Z,89.61
2017-09-06T03:20:23.296Z,91.05
2017-09-06T03:22:51.748Z,91.78
2017-09-06T03:25:20.369Z,92.13
2017-09-06T03:27:48.839Z,92.39
2017-09-06T03:30:17.336Z,93.06
2017-09-06T03:32:45.799Z,93.19
2017-09-06T03:35:14.288Z,93.38
2017-09-06T03:37:42.773Z,93.82
2017-09-06T03:40:11.264Z,93.27
2017-09-06T03:42:39.745Z,93.58
2017-09-06T03:45:08.181Z,93.16
2017-09-06T03:47:36.695Z,93.37
2017-09-06T03:50:05.176Z,93.64
2017-09-06T03:52:33.663Z,93.29
2017-09-06T03:55:02.140Z,93.73
2017-09-06T03:57:30.628Z,93.48
2017-09-06T03:59:59.069Z,93.60
2017-09-06T04:02:27.592Z,93.20
2017-09-06T04:04:56.083Z,93.42
2017-09-06T04:07:24.527Z,93.51
2017-09-06T04:09:53.032Z,93.94
2017-09-06T04:12:21.535Z,93.50
2017-09-06T04:14:49.995Z,92.88
2017-09-06T04:17:18.498Z,92.82
2017-09-06T04:19:46.975Z,92.75
2017-09-06T04:22:15.427Z,93.62
2017-09-06T04:24:43.926Z,93.48
2017-09-06T04:27:12.377Z,93.81
2017-09-06T04:29:40.817Z,93.49
2017-09-06T04:32:09.381Z,93.72
2017-09-06T04:34:37.826Z,93.06
2017-09-06T04:37:07.029Z,93.26
2017-09-06T04:39:35.535Z,93.50
2017-09-06T04:42:03.993Z,93.25
2017-09-06T04:44:32.613Z,93.30
2017-09-06T04:47:01.088Z,93.17
2017-09-06T04:49:29.574Z,92.62
2017-09-06T04:51:58.020Z,93.23
2017-09-06T04:54:26.532Z,92.48
2017-09-06T04:56:55.026Z,91.93
2017-09-06T04:59:23.460Z,91.98
2017-09-06T05:01:51.990Z,91.41
2017-09-06T05:04:20.425Z,92.17
2017-09-06T05:06:48.935Z,90.96
2017-09-06T05:09:17.435Z,91.94
2017-09-06T05:11:45.870Z,91.86
2017-09-06T05:14:14.383Z,91.70
2017-09-06T05:16:42.825Z,90.91
2017-09-06T05:19:11.364Z,91.23
2017-09-06T05:21:39.809Z,91.33
2017-09-06T05:24:08.311Z,90.68
2017-09-06T05:26:36.735Z,90.59
2017-09-06T05:29:05.188Z,90.06
2017-09-06T05:31:33.662Z,90.13
2017-09-06T05:34:02.103Z,89.53
2017-09-06T05:36:30.636Z,89.71
2017-09-06T05:38:59.096Z,89.94
2017-09-06T05:41:27.589Z,89.42
2017-09-06T05:43:56.026Z,89.48
2017-09-06T05:46:24.555Z,88.71
2017-09-06T05:48:53.018Z,89.88
2017-09-06T05:51:21.529Z,89.12
2017-09-06T05:53:49.984Z,88.61
2017-09-06T05:56:18.475Z,88.40
2017-09-06T05:58:46.924Z,88.33
2017-09-06T06:01:15.449Z,87.13
2017-09-06T06:03:43.899Z,87.52
2017-09-06T06:06:12.404Z,87.15
2017-09-06T06:08:40.887Z,86.60
2017-09-06T06:11:09.368Z,86.87
2017-09-06T06:13:37.863Z,88.48
2017-09-06T06:16:06.347Z,88.01
2017-09-06T06:18:34.799Z,88.29
2017-09-06T06:21:03.299Z,87.44
2017-09-06T06:23:31.781Z,87.45
2017-09-06T06:26:00.217Z,88.10
2017-09-06T06:28:28.743Z,87.47
2017-09-06T06:30:57.230Z,88.03
2017-09-06T06:33:25.719Z,87.84
2017-09-06T06:35:54.187Z,87.05
2017-09-06T06:38:22.639Z,87.25
2017-09-06T06:40:51.067Z,87.60
2017-09-06T06:43:19.531Z,86.81
2017-09-06T06:45:48.015Z,86.63
2017-09-06T06:48:16.499Z,87.30
2017-09-06T06:50:44.928Z,87.01
2017-09-06T06:53:13.469Z,85.70
2017-09-06T06:55:41.961Z,84.47
2017-09-06T06:58:10.424Z,84.29
2017-09-06T07:00:38.907Z,82.44
2017-09-06T07:03:07.374Z,81.01
2017-09-06T07:05:36.598Z,80.21
2017-09-06T07:08:05.076Z,80.19
2017-09-06T07:10:33.503Z,81.55
2017-09-06T07:13:02.031Z,79.93
2017-09-06T07:15:30.483Z,80.65
2017-09-06T07:17:58.996Z,80.73
2017-09-06T07:20:27.490Z,79.63
2017-09-06T07:22:55.960Z,80.55
2017-09-06T07:25:24.460Z,80.26
2017-09-06T07:27:52.913Z,79.13
2017-09-06T07:30:21.457Z,77.87
2017-09-06T07:32:49.996Z,75.91
2017-09-06T07:35:18.485Z,74.69
2017-09-06T07:37:46.933Z,75.06
2017-09-06T07:40:15.435Z,74.32
2017-09-06T07:42:43.937Z,74.46
2017-09-06T07:45:12.587Z,74.16
2017-09-06T07:47:41.088Z,74.97
2017-09-06T07:50:09.582Z,73.89
2017-09-06T07:52:38.019Z,74.82
2017-09-06T07:55:06.486Z,72.99
2017-09-06T07:57:34.931Z,73.52
2017-09-06T08:00:03.510Z,72.26
2017-09-06T08:02:31.993Z,72.23
2017-09-06T08:05:00.443Z,70.84
2017-09-06T08:07:28.880Z,71.40
2017-09-06T08:09:57.338Z,72.88
2017-09-06T08:12:25.825Z,70.66
2017-09-06T08:14:54.401Z,71.12
2017-09-06T08:17:22.871Z,71.13
2017-09-06T08:19:51.372Z,69.68
2017-09-06T08:22:19.803Z,68.54
2017-09-06T08:24:48.274Z,67.73
2017-09-06T08:27:16.799Z,67.73
2017-09-06T08:29:45.298Z,68.17
2017-09-06T08:32:13.739Z,67.39
2017-09-06T08:34:42.955Z,67.11
2017-09-06T08:37:11.392Z,67.02
2017-09-06T08:39:39.927Z,66.78
2017-09-06T08:42:08.355Z,66.65
2017-09-06T08:44:36.902Z,67.34
2017-09-06T08:47:05.336Z,68.12
2017-09-06T08:49:33.851Z,68.05
2017-09-06T08:52:02.341Z,69.42
2017-09-06T08:54:30.831Z,71.08
2017-09-06T08:56:59.260Z,71.60
2017-09-06T08:59:27.725Z,72.20
2017-09-06T09:01:56.157Z,72.30
2017-09-06T09:04:24.639Z,72.01
2017-09-06T09:06:53.133Z,71.86
2017-09-06T09:09:21.613Z,72.90
2017-09-06T09:11:50.106Z,71.66
2017-09-06T09:14:18.588Z,71.28
2017-09-06T09:16:47.044Z,71.62
2017-09-06T09:19:15.535Z,72.68
2017-09-06T09:21:44.019Z,76.50
2017-09-06T09:24:12.511Z,76.87
2017-09-06T09:26:40.998Z,76.74
2017-09-06T09:29:09.474Z,78.57
2017-09-06T09:31:37.961Z,80.50
2017-09-06T09:34:06.391Z,80.22
2017-09-06T09:36:34.853Z,81.78
2017-09-06T09:39:03.392Z,82.24
2017-09-06T09:41:31.893Z,82.96
2017-09-06T09:44:00.668Z,84.49
2017-09-06T09:46:29.162Z,84.47
2017-09-06T09:48:57.627Z,85.66
2017-09-06T09:51:26.187Z,86.70
2017-09-06T09:53:54.692Z,87.99
2017-09-06T09:56:23.186Z,88.16
2017-09-06T09:58:51.640Z,89.41
2017-09-06T10:01:20.867Z,90.01
2017-09-06T10:03:49.354Z,89.08
2017-09-06T10:06:17.818Z,89.71
2017-09-06T10:08:46.247Z,89.95
2017-09-06T10:11:14.788Z,90.29
2017-09-06T10:13:43.227Z,90.82
2017-09-06T10:16:11.684Z,90.69
2017-09-06T10:18:40.144Z,91.48
2017-09-06T10:21:08.730Z,91.33
2017-09-06T10:23:37.201Z,90.27
2017-09-06T10:26:05.688Z,90.57
2017-09-06T10:28:34.123Z,90.29
2017-09-06T10:31:02.654Z,90.49
2017-09-06T10:33:31.111Z,90.68
2017-09-06T10:35:59.581Z,90.44
2017-09-06T10:38:28.771Z,90.66
2017-09-06T10:40:57.285Z,91.21
2017-09-06T10:43:25.789Z,90.65
2017-09-06T10:45:54.471Z,91.19
2017-09-06T10:48:23.532Z,91.63
2017-09-06T10:50:52.042Z,91.30
2017-09-06T10:53:20.525Z,91.18
2017-09-06T10:55:48.999Z,90.85
2017-09-06T10:58:17.495Z,91.60
2017-09-06T11:00:45.953Z,91.12
2017-09-06T11:03:14.456Z,90.31
2017-09-06T11:05:42.934Z,89.62
2017-09-06T11:08:11.399Z,89.33
2017-09-06T11:10:39.903Z,88.51
2017-09-06T11:13:08.365Z,88.08
2017-09-06T11:15:36.868Z,88.15
2017-09-06T11:18:05.331Z,88.87
2017-09-06T11:20:33.835Z,87.94
2017-09-06T11:23:02.520Z,87.66
2017-09-06T11:25:30.992Z,87.12
2017-09-06T11:27:59.482Z,87.05
2017-09-06T11:30:27.959Z,87.15
2017-09-06T11:32:56.442Z,86.71
2017-09-06T11:35:24.871Z,84.39
2017-09-06T11:37:53.342Z,84.59
2017-09-06T11:40:21.780Z,83.91
2017-09-06T11:42:50.255Z,82.55
2017-09-06T11:45:18.695Z,83.28
2017-09-06T11:47:47.219Z,82.81
2017-09-06T11:50:15.648Z,81.01
2017-09-06T11:52:44.118Z,80.97
2017-09-06T11:55:12.668Z,80.63
2017-09-06T11:57:41.135Z,81.11
2017-09-06T12:00:09.572Z,81.27
2017-09-06T12:02:38.122Z,80.62
2017-09-06T12:05:06.591Z,80.07
2017-09-06T12:07:35.033Z,80.40
2017-09-06T12:10:03.461Z,78.77
2017-09-06T12:12:31.929Z,79.21
2017-09-06T12:15:00.365Z,79.29
2017-09-06T12:17:28.904Z,78.41
2017-09-06T12:19:57.379Z,77.39
2017-09-06T12:22:25.832Z,79.26
2017-09-06T12:24:54.344Z,78.54
2017-09-06T12:27:22.837Z,78.43
2017-09-06T12:29:51.312Z,77.63
2017-09-06T12:32:19.809Z,76.93
2017-09-06T12:34:48.272Z,75.72
2017-09-06T12:37:16.765Z,75.98
2017-09-06T12:39:45.208Z,76.78
2017-09-06T12:42:14.454Z,76.27
2017-09-06T12:44:42.915Z,76.41
2017-09-06T12:47:11.403Z,76.08
2017-09-06T12:49:39.894Z,76.09
2017-09-06T12:52:08.373Z,76.72
2017-09-06T12:54:36.821Z,77.32
2017-09-06T12:57:05.331Z,77.91
2017-09-06T12:59:33.760Z,77.98
2017-09-06T13:02:02.245Z,78.18
2017-09-06T13:04:30.776Z,77.67
2017-09-06T13:06:59.255Z,78.36
2017-09-06T13:09:27.703Z,77.89
2017-09-06T13:11:56.220Z,77.83
2017-09-06T13:14:24.676Z,77.13
2017-09-06T13:16:53.193Z,77.78
2017-09-06T13:19:21.678Z,78.18
2017-09-06T13:21:50.122Z,77.65
2017-09-06T13:24:18.581Z,77.69
2017-09-06T13:26:47.117Z,76.93
2017-09-06T13:29:15.607Z,75.60
2017-09-06T13:31:44.049Z,74.61
2017-09-06T13:34:12.505Z,73.44
2017-09-06T13:36:40.945Z,74.21
2017-09-06T13:39:09.387Z,73.75
2017-09-06T13:41:37.899Z,72.51
2017-09-06T13:44:06.399Z,73.68
2017-09-06T13:46:34.831Z,72.83
2017-09-06T13:49:03.353Z,72.53
2017-09-06T13:51:31.776Z,70.48
2017-09-06T13:54:00.215Z,67.45
2017-09-06T13:56:28.649Z,68.60
2017-09-06T13:58:57.100Z,65.99
2017-09-06T14:01:25.531Z,66.90
2017-09-06T14:03:54.041Z,65.17
2017-09-06T14:06:22.506Z,66.51
2017-09-06T14:08:51.009Z,68.45
2017-09-06T14:11:19.488Z,67.97
2017-09-06T14:13:47.927Z,68.51
2017-09-06T14:16:16.457Z,69.87
2017-09-06T14:18:44.918Z,71.39
2017-09-06T14:21:13.420Z,71.21
2017-09-06T14:23:41.897Z,70.24
2017-09-06T14:26:10.329Z,70.16
2017-09-06T14:28:38.864Z,69.65
2017-09-06T14:31:07.335Z,69.87
2017-09-06T14:33:35.780Z,69.51
2017-09-06T14:36:04.222Z,69.05
2017-09-06T14:38:32.697Z,68.16
2017-09-06T14:41:01.206Z,68.69
2017-09-06T14:43:29.643Z,69.22
2017-09-06T14:45:58.137Z,69.69
2017-09-06T14:48:26.619Z,70.55
2017-09-06T14:50:55.050Z,70.29
2017-09-06T14:53:23.503Z,70.69
2017-09-06T14:55:51.967Z,71.31
2017-09-06T14:58:20.445Z,71.37
2017-09-06T15:00:48.881Z,72.62
2017-09-06T15:03:18.226Z,73.46
2017-09-06T15:05:46.700Z,76.01
2017-09-06T15:08:15.188Z,79.46
2017-09-06T15:10:43.644Z,81.18
2017-09-06T15:13:12.263Z,83.41
2017-09-06T15:15:40.837Z,86.46
2017-09-06T15:18:09.326Z,86.41
2017-09-06T15:20:37.806Z,85.99
2017-09-06T15:23:06.285Z,87.64
2017-09-06T15:25:34.759Z,87.61
2017-09-06T15:28:03.211Z,88.45
2017-09-06T15:30:31.723Z,89.54
2017-09-06T15:33:00.212Z,86.92
2017-09-06T15:35:28.659Z,88.10
2017-09-06T15:37:57.169Z,87.60
2017-09-06T15:40:25.647Z,88.15
2017-09-06T15:42:54.131Z,87.98
2017-09-06T15:45:22.627Z,87.30
2017-09-06T15:47:51.060Z,87.40
2017-09-06T15:50:19.521Z,87.88
2017-09-06T15:52:47.955Z,88.47
2017-09-06T15:55:16.451Z,87.89
2017-09-06T15:57:44.924Z,87.71
2017-09-06T16:00:13.414Z,86.54
2017-09-06T16:02:41.866Z,86.84
2017-09-06T16:05:10.386Z,86.97
2017-09-06T16:07:38.825Z,87.16
2017-09-06T16:10:07.348Z,87.19
2017-09-06T16:12:35.817Z,87.50
2017-09-06T16:15:04.268Z,87.97
2017-09-06T16:17:32.697Z,88.38
2017-09-06T16:20:01.161Z,87.77
2017-09-06T16:22:29.606Z,87.41
2017-09-06T16:24:58.056Z,88.21
2017-09-06T16:27:26.511Z,87.48
2017-09-06T16:29:54.977Z,88.20
2017-09-06T16:32:23.464Z,88.31
2017-09-06T16:34:51.914Z,87.00
2017-09-06T16:37:21.119Z,87.29
2017-09-06T16:39:49.636Z,87.00
2017-09-06T16:42:18.197Z,87.08
2017-09-06T16:44:46.701Z,86.61
2017-09-06T16:47:15.139Z,86.98
2017-09-06T16:49:43.665Z,87.99
2017-09-06T16:52:12.150Z,87.46
2017-09-06T16:54:40.581Z,89.19
2017-09-06T16:57:09.114Z,89.37
2017-09-06T16:59:37.548Z,90.06
2017-09-06T17:02:06.012Z,90.33
2017-09-06T17:04:34.435Z,90.52
2017-09-06T17:07:03.440Z,90.28
2017-09-06T17:09:42.690Z,90.39
2017-09-06T17:12:11.160Z,90.48
2017-09-06T17:14:39.639Z,91.62
2017-09-06T17:17:08.096Z,91.03
2017-09-06T17:19:36.613Z,88.98
2017-09-06T17:22:05.055Z,88.07
2017-09-06T17:24:33.563Z,89.34
2017-09-06T17:27:02.049Z,89.87
2017-09-06T17:29:30.532Z,91.21
2017-09-06T17:31:59.021Z,91.44
2017-09-06T17:34:27.506Z,91.11
2017-09-06T17:36:56.284Z,90.74
2017-09-06T17:39:24.756Z,90.74
2017-09-06T17:41:53.247Z,91.16
2017-09-06T17:44:21.737Z,91.12
2017-09-06T17:46:50.228Z,91.00
2017-09-06T17:49:18.705Z,90.33
2017-09-06T17:51:47.165Z,90.64
2017-09-06T17:54:15.653Z,91.26
2017-09-06T17:56:44.151Z,90.81
2017-09-06T17:59:12.575Z,90.57
2017-09-06T18:01:41.039Z,90.97
2017-09-06T18:04:09.488Z,90.22
2017-09-06T18:06:37.977Z,90.94
2017-09-06T18:09:06.443Z,91.42
2017-09-06T18:11:34.935Z,91.12
2017-09-06T18:14:03.407Z,91.26
2017-09-06T18:16:31.835Z,91.13
2017-09-06T18:19:00.388Z,91.80
2017-09-06T18:21:28.860Z,90.96
2017-09-06T18:23:57.349Z,91.68
2017-09-06T18:26:25.779Z,90.88
2017-09-06T18:28:54.324Z,90.70
2017-09-06T18:31:22.758Z,91.24
2017-09-06T18:33:51.221Z,90.80
2017-09-06T18:36:20.373Z,91.40
2017-09-06T18:38:48.820Z,91.55
2017-09-06T18:41:18.021Z,91.50
2017-09-06T18:43:46.477Z,92.14
2017-09-06T18:46:15.028Z,91.12
2017-09-06T18:48:43.588Z,91.10
2017-09-06T18:51:12.089Z,91.22
2017-09-06T18:53:40.544Z,91.38
2017-09-06T18:56:09.032Z,90.62
2017-09-06T18:58:37.516Z,90.33
2017-09-06T19:01:05.943Z,91.60
2017-09-06T19:03:34.494Z,90.30
2017-09-06T19:06:02.922Z,90.45
2017-09-06T19:08:31.377Z,90.33
2017-09-06T19:10:59.849Z,90.59
2017-09-06T19:13:28.423Z,89.64
2017-09-06T19:15:56.902Z,89.72
2017-09-06T19:18:25.386Z,89.90
2017-09-06T19:20:53.826Z,89.98
2017-09-06T19:23:22.341Z,90.88
2017-09-06T19:25:50.826Z,90.39
2017-09-06T19:28:19.320Z,91.06
2017-09-06T19:30:47.777Z,90.94
2017-09-06T19:33:17.104Z,90.85
2017-09-06T19:35:45.664Z,90.87
2017-09-06T19:38:14.151Z,91.28
2017-09-06T19:40:42.632Z,91.01
2017-09-06T19:43:11.127Z,91.15
2017-09-06T19:45:39.575Z,91.21
2017-09-06T19:48:08.084Z,90.95
2017-09-06T19:50:36.522Z,91.12
2017-09-06T19:53:05.055Z,90.95
2017-09-06T19:55:33.523Z,90.72
2017-09-06T19:58:02.019Z,90.70
2017-09-06T20:00:30.506Z,90.54
2017-09-06T20:02:58.942Z,91.09
2017-09-06T20:05:28.276Z,90.71
2017-09-06T20:07:56.751Z,90.38
2017-09-06T20:10:25.235Z,90.28
2017-09-06T20:12:53.720Z,90.03
2017-09-06T20:15:22.208Z,90.17
2017-09-06T20:17:50.637Z,90.23
2017-09-06T20:20:19.173Z,90.25
2017-09-06T20:22:47.635Z,89.98
2017-09-06T20:25:16.127Z,89.58
2017-09-06T20:27:44.612Z,90.30
2017-09-06T20:30:13.087Z,90.63
2017-09-06T20:32:41.518Z,90.32
2017-09-06T20:35:09.984Z,90.11
2017-09-06T20:37:38.434Z,90.40
2017-09-06T20:40:06.930Z,90.40
2017-09-06T20:42:35.383Z,89.99
2017-09-06T20:45:04.600Z,89.93
2017-09-06T20:47:33.057Z,90.04
2017-09-06T20:50:01.475Z,90.48
2017-09-06T20:52:29.937Z,89.95
2017-09-06T20:54:58.364Z,90.36
2017-09-06T20:57:26.923Z,90.03
2017-09-06T20:59:55.342Z,90.66
2017-09-06T21:02:23.793Z,90.66
2017-09-06T21:04:52.211Z,90.55
2017-09-06T21:07:20.737Z,90.87
2017-09-06T21:09:49.180Z,91.18
2017-09-06T21:12:17.692Z,91.67
2017-09-06T21:14:46.189Z,91.60
2017-09-06T21:17:14.628Z,91.54
2017-09-06T21:19:43.074Z,91.37
2017-09-06T21:22:11.621Z,91.66
2017-09-06T21:24:40.058Z,92.76
2017-09-06T21:27:08.498Z,92.40
2017-09-06T21:29:36.948Z,92.00
2017-09-06T21:32:05.445Z,92.27
2017-09-06T21:34:33.928Z,92.31
2017-09-06T21:37:02.360Z,92.44
2017-09-06T21:39:30.808Z,92.64
2017-09-06T21:41:59.280Z,92.19
2017-09-06T21:44:27.765Z,92.15
2017-09-06T21:46:56.246Z,92.18
2017-09-06T21:49:24.720Z,92.32
2017-09-06T21:51:53.209Z,92.63
2017-09-06T21:54:21.657Z,91.88
2017-09-06T21:56:50.179Z,92.26
2017-09-06T21:59:18.651Z,92.54
2017-09-06T22:01:47.127Z,92.73
2017-09-06T22:04:15.573Z,92.80
2017-09-06T22:06:44.087Z,92.65
2017-09-06T22:09:12.540Z,92.57
2017-09-06T22:11:41.054Z,92.45
2017-09-06T22:14:09.513Z,92.15
2017-09-06T22:16:38.019Z,92.44
2017-09-06T22:19:06.513Z,92.33
2017-09-06T22:21:34.997Z,92.03
2017-09-06T22:24:03.464Z,91.56
2017-09-06T22:26:31.893Z,91.99
2017-09-06T22:29:00.352Z,91.73
2017-09-06T22:31:28.779Z,91.84
2017-09-06T22:33:57.704Z,91.39
2017-09-06T22:36:26.135Z,91.74
2017-09-06T22:38:54.577Z,91.65
2017-09-06T22:41:23.047Z,91.52
2017-09-06T22:43:51.532Z,91.91
2017-09-06T22:46:20.011Z,91.83
2017-09-06T22:48:48.491Z,91.04
2017-09-06T22:51:16.988Z,90.77
2017-09-06T22:53:45.429Z,90.86
2017-09-06T22:56:13.939Z,90.68
2017-09-06T22:58:42.431Z,90.78
2017-09-06T23:01:10.904Z,90.52
2017-09-06T23:03:39.392Z,90.59
2017-09-06T23:06:07.864Z,90.29
2017-09-06T23:08:36.302Z,90.92
2017-09-06T23:11:04.761Z,90.79
2017-09-06T23:13:33.212Z,90.73
2017-09-06T23:16:01.706Z,90.31
2017-09-06T23:18:30.149Z,90.42
2017-09-06T23:20:58.588Z,89.99
2017-09-06T23:23:27.036Z,90.38
2017-09-06T23:25:55.525Z,89.89
2017-09-06T23:28:23.951Z,89.94
2017-09-06T23:30:52.400Z,89.87
2017-09-06T23:33:20.877Z,89.88
2017-09-06T23:35:49.342Z,89.36
2017-09-06T23:38:17.828Z,89.33
2017-09-06T23:40:46.319Z,89.77
2017-09-06T23:43:14.760Z,88.99
2017-09-06T23:45:43.219Z,89.56
2017-09-06T23:48:11.760Z,89.00
2017-09-06T23:50:40.229Z,88.57
2017-09-06T23:53:08.724Z,88.87
2017-09-06T23:55:37.209Z,88.68
2017-09-06T23:58:05.689Z,88.63
